Terminal Aerodrome Forecast
Issued by NWS

Home | Current Version | Previous Version | Text Only | Print | Product List | Glossary On
Versions: 1 2 3 4 5 6 7 8 9 10 11 12 13 14 15 16 17 18 19 20 21 22 23 24 25 26 27 28 29 30
004
FTUS45 KREV 201739
TAFTRK
TAF
KTRK 201739Z 2018/2118 20005KT P6SM VCSH SCT025 OVC040
      TEMPO 2018/2020 5SM -SHRA OVC025
     FM202300 20008KT 6SM -SHRA BKN025 OVC040
     FM210300 19005KT P6SM SCT030 BKN080
      TEMPO 2104/2108 1SM BR BKN002=

USA.gov is the U.S. government's official web portal to all federal, state and local government web resources and services.